createdAt,value
2023-04-21T00:00:10.557Z,14.80
2023-04-21T00:02:41.534Z,14.30
2023-04-21T00:05:13.898Z,15.43
2023-04-21T00:07:42.866Z,15.20
2023-04-21T00:10:12.181Z,15.40
2023-04-21T00:12:41.395Z,14.70
2023-04-21T00:15:10.653Z,14.77
2023-04-21T00:17:40.927Z,15.57
2023-04-21T00:20:11.960Z,16.23
2023-04-21T00:22:40.244Z,15.90
2023-04-21T00:25:09.310Z,18.10
2023-04-21T00:27:38.196Z,19.80
2023-04-21T00:30:07.381Z,20.23
2023-04-21T00:32:38.615Z,22.17
2023-04-21T00:35:07.665Z,21.13
2023-04-21T00:37:37.900Z,22.20
2023-04-21T00:40:07.150Z,21.60
2023-04-21T00:42:35.993Z,22.27
2023-04-21T00:45:04.840Z,23.40
2023-04-21T00:47:33.536Z,23.10
2023-04-21T00:50:04.280Z,21.93
2023-04-21T00:52:32.764Z,23.10
2023-04-21T00:55:02.947Z,23.07
2023-04-21T00:57:33.582Z,24.47
2023-04-21T01:00:02.071Z,21.37
2023-04-21T01:02:30.578Z,23.43
2023-04-21T01:04:58.982Z,26.30
2023-04-21T01:07:27.920Z,26.53
2023-04-21T01:09:58.073Z,26.30
2023-04-21T01:12:28.107Z,26.50
2023-04-21T01:14:56.824Z,25.03
2023-04-21T01:17:25.732Z,25.17
2023-04-21T01:19:57.940Z,25.20
2023-04-21T01:22:27.877Z,24.07
2023-04-21T01:24:56.642Z,26.90
2023-04-21T01:27:26.958Z,24.23
2023-04-21T01:29:56.103Z,26.00
2023-04-21T01:32:29.033Z,23.13
2023-04-21T01:34:59.777Z,23.47
2023-04-21T01:37:33.023Z,24.27
2023-04-21T01:40:04.988Z,25.80
2023-04-21T01:42:36.101Z,21.70
2023-04-21T01:45:05.119Z,22.67
2023-04-21T01:47:33.806Z,23.43
2023-04-21T01:50:02.134Z,26.33
2023-04-21T01:52:32.047Z,22.30
2023-04-21T01:55:03.169Z,23.37
2023-04-21T01:57:32.050Z,22.60
2023-04-21T02:00:00.466Z,22.80
2023-04-21T02:02:29.560Z,21.17
2023-04-21T02:04:57.989Z,23.67
2023-04-21T02:07:26.767Z,24.10
2023-04-21T02:09:56.673Z,27.07
2023-04-21T02:12:25.195Z,26.97
2023-04-21T02:14:54.634Z,25.87
2023-04-21T02:17:23.941Z,26.67
2023-04-21T02:19:54.813Z,26.80
2023-04-21T02:22:29.827Z,27.27
2023-04-21T02:24:59.799Z,25.73
2023-04-21T02:27:31.369Z,29.67
2023-04-21T02:30:01.934Z,26.83
2023-04-21T02:32:31.019Z,27.13
2023-04-21T02:35:00.162Z,25.90
2023-04-21T02:37:32.496Z,24.97
2023-04-21T02:40:02.804Z,25.97
2023-04-21T02:42:34.772Z,25.77
2023-04-21T02:45:03.196Z,26.43
2023-04-21T02:47:32.310Z,26.60
2023-04-21T02:50:01.129Z,26.00
2023-04-21T02:52:30.156Z,25.27
2023-04-21T02:54:58.435Z,26.60
2023-04-21T02:57:28.272Z,25.20
2023-04-21T02:59:56.605Z,24.10
2023-04-21T03:02:25.148Z,25.40
2023-04-21T03:04:54.089Z,25.83
2023-04-21T03:07:23.044Z,25.30
2023-04-21T03:09:51.311Z,25.10
2023-04-21T03:12:19.632Z,24.17
2023-04-21T03:14:49.702Z,23.90
2023-04-21T03:17:21.096Z,23.77
2023-04-21T03:19:50.001Z,25.03
2023-04-21T03:22:18.322Z,22.70
2023-04-21T03:24:46.600Z,24.30
2023-04-21T03:27:14.967Z,23.33
2023-04-21T03:29:43.684Z,20.90
2023-04-21T03:32:13.664Z,21.43
2023-04-21T03:34:42.997Z,21.43
2023-04-21T03:37:11.694Z,23.20
2023-04-21T03:39:40.076Z,21.70
2023-04-21T03:42:08.994Z,24.83
2023-04-21T03:44:37.326Z,24.70
2023-04-21T03:47:05.986Z,22.87
2023-04-21T03:49:36.906Z,22.67
2023-04-21T03:52:05.994Z,21.23
2023-04-21T03:54:34.267Z,23.23
2023-04-21T03:57:03.205Z,21.20
2023-04-21T03:59:32.537Z,21.40
2023-04-21T04:02:01.615Z,22.80
2023-04-21T04:04:30.696Z,22.50
2023-04-21T04:07:01.375Z,24.00
2023-04-21T04:09:29.950Z,21.43
2023-04-21T04:11:58.626Z,24.10
2023-04-21T04:14:27.019Z,22.23
2023-04-21T04:16:56.442Z,21.07
2023-04-21T04:19:24.803Z,22.03
2023-04-21T04:21:53.117Z,22.63
2023-04-21T04:24:22.887Z,22.40
2023-04-21T04:26:51.441Z,21.17
2023-04-21T04:29:20.100Z,22.33
2023-04-21T04:31:49.201Z,22.10
2023-04-21T04:34:17.957Z,20.07
2023-04-21T04:36:46.855Z,19.87
2023-04-21T04:39:18.408Z,19.37
2023-04-21T04:41:48.727Z,19.40
2023-04-21T04:44:18.071Z,18.83
2023-04-21T04:46:47.070Z,18.90
2023-04-21T04:49:15.546Z,19.70
2023-04-21T04:51:43.775Z,20.23
2023-04-21T04:54:12.992Z,20.07
2023-04-21T04:56:41.730Z,19.37
2023-04-21T04:59:11.804Z,18.17
2023-04-21T05:01:41.830Z,18.37
2023-04-21T05:04:10.769Z,20.73
2023-04-21T05:06:39.666Z,19.73
2023-04-21T05:09:10.334Z,19.23
2023-04-21T05:11:38.627Z,18.27
2023-04-21T05:14:07.124Z,22.60
2023-04-21T05:16:38.533Z,22.70
2023-04-21T05:19:07.931Z,20.60
2023-04-21T05:21:38.076Z,23.27
2023-04-21T05:24:07.437Z,22.27
2023-04-21T05:26:35.816Z,25.00
2023-04-21T05:29:04.782Z,23.13
2023-04-21T05:31:35.009Z,22.37
2023-04-21T05:34:05.078Z,23.50
2023-04-21T05:36:33.435Z,24.37
2023-04-21T05:39:01.700Z,22.67
2023-04-21T05:41:30.221Z,22.53
2023-04-21T05:43:59.191Z,22.63
2023-04-21T05:46:31.536Z,23.13
2023-04-21T05:49:00.154Z,22.17
2023-04-21T05:51:29.988Z,20.67
2023-04-21T05:53:58.302Z,20.43
2023-04-21T05:56:27.464Z,19.30
2023-04-21T05:58:57.202Z,19.83
2023-04-21T06:01:25.701Z,20.20
2023-04-21T06:03:54.161Z,19.17
2023-04-21T06:06:24.013Z,21.80
2023-04-21T06:08:54.056Z,15.87
2023-04-21T06:11:25.005Z,20.10
2023-04-21T06:13:58.249Z,19.03
2023-04-21T06:16:27.177Z,19.53
2023-04-21T06:18:55.930Z,18.07
2023-04-21T06:21:25.447Z,18.07
2023-04-21T06:23:55.343Z,19.63
2023-04-21T06:26:25.202Z,19.50
2023-04-21T06:28:53.532Z,20.87
2023-04-21T06:31:21.954Z,18.10
2023-04-21T06:33:50.429Z,20.77
2023-04-21T06:36:22.960Z,20.50
2023-04-21T06:38:51.371Z,19.07
2023-04-21T06:41:22.920Z,19.43
2023-04-21T06:43:52.790Z,18.30
2023-04-21T06:46:24.410Z,17.73
2023-04-21T06:48:52.827Z,16.57
2023-04-21T06:51:21.279Z,16.63
2023-04-21T06:53:50.102Z,18.20
2023-04-21T06:56:19.990Z,16.30
2023-04-21T06:58:49.743Z,15.73
2023-04-21T07:01:18.398Z,16.03
2023-04-21T07:03:47.420Z,15.87
2023-04-21T07:06:15.793Z,14.87
2023-04-21T07:08:44.128Z,14.80
2023-04-21T07:11:12.430Z,16.70
2023-04-21T07:13:42.489Z,15.30
2023-04-21T07:16:11.349Z,14.53
2023-04-21T07:18:41.956Z,13.87
2023-04-21T07:21:10.914Z,14.23
2023-04-21T07:23:39.324Z,13.87
2023-04-21T07:26:07.791Z,13.10
2023-04-21T07:28:36.518Z,12.60
2023-04-21T07:31:07.044Z,12.87
2023-04-21T07:33:35.776Z,12.63
2023-04-21T07:36:05.483Z,12.80
2023-04-21T07:38:34.832Z,13.60
2023-04-21T07:41:03.701Z,13.10
2023-04-21T07:43:32.406Z,13.03
2023-04-21T07:46:00.929Z,11.80
2023-04-21T07:48:30.844Z,11.93
2023-04-21T07:51:00.621Z,12.03
2023-04-21T07:53:29.081Z,11.63
2023-04-21T07:55:57.656Z,11.97
2023-04-21T07:58:26.053Z,12.57
2023-04-21T08:00:54.616Z,11.17
2023-04-21T08:03:24.443Z,12.80
2023-04-21T08:05:54.642Z,14.33
2023-04-21T08:08:23.528Z,13.63
2023-04-21T08:10:51.884Z,12.37
2023-04-21T08:13:21.061Z,12.33
2023-04-21T08:15:49.847Z,12.27
2023-04-21T08:18:22.089Z,11.10
2023-04-21T08:20:52.563Z,9.90
2023-04-21T08:23:22.782Z,9.23
2023-04-21T08:25:51.104Z,8.93
2023-04-21T08:28:19.450Z,9.50
2023-04-21T08:30:49.044Z,8.83
2023-04-21T08:33:17.382Z,8.10
2023-04-21T08:35:59.291Z,8.67
2023-04-21T08:38:35.620Z,8.80
2023-04-21T08:41:06.039Z,9.23
2023-04-21T08:43:34.778Z,8.30
2023-04-21T08:46:07.235Z,7.50
2023-04-21T08:48:37.756Z,7.80
2023-04-21T08:51:09.748Z,7.93
2023-04-21T08:53:42.795Z,9.63
2023-04-21T08:56:12.273Z,8.80
2023-04-21T08:58:42.136Z,9.87
2023-04-21T09:01:11.101Z,9.40
2023-04-21T09:03:40.137Z,9.00
2023-04-21T09:06:11.156Z,6.93
2023-04-21T09:08:45.053Z,5.80
2023-04-21T09:11:16.027Z,5.50
2023-04-21T09:13:47.453Z,5.57
2023-04-21T09:16:22.419Z,5.47
2023-04-21T09:18:51.987Z,4.73
2023-04-21T09:21:23.201Z,5.70
2023-04-21T09:23:55.582Z,5.73
2023-04-21T09:26:24.733Z,5.93
2023-04-21T09:28:55.268Z,5.97
2023-04-21T09:31:25.676Z,4.93
2023-04-21T09:33:59.546Z,5.70
2023-04-21T09:36:31.995Z,5.97
2023-04-21T09:41:36.586Z,4.50
2023-04-21T09:44:05.263Z,5.57
2023-04-21T09:46:37.087Z,6.03
2023-04-21T09:49:06.239Z,5.10
2023-04-21T09:56:52.498Z,5.30
2023-04-21T09:59:27.612Z,5.27
2023-04-21T10:01:58.961Z,5.67
2023-04-21T10:04:29.145Z,5.63
2023-04-21T10:06:58.165Z,4.93
2023-04-21T10:09:34.511Z,4.93
2023-04-21T10:12:06.444Z,4.80
2023-04-21T10:14:38.224Z,5.20
2023-04-21T10:17:11.164Z,4.80
2023-04-21T10:19:49.387Z,4.73
2023-04-21T10:22:29.156Z,4.37
2023-04-21T10:25:00.058Z,4.97
2023-04-21T10:27:36.537Z,4.20
2023-04-21T10:30:21.058Z,3.80
2023-04-21T10:32:50.027Z,3.60
2023-04-21T10:35:24.043Z,4.40
2023-04-21T10:37:53.119Z,4.10
2023-04-21T10:43:43.382Z,3.87
2023-04-21T10:46:33.008Z,4.87
2023-04-21T10:49:07.084Z,5.57
2023-04-21T10:52:04.432Z,5.67
2023-04-21T10:54:41.771Z,5.70
2023-04-21T10:57:13.796Z,5.37
2023-04-21T10:59:43.489Z,5.80
2023-04-21T11:02:13.693Z,6.00
2023-04-21T11:04:46.220Z,6.40
2023-04-21T11:07:16.982Z,5.20
2023-04-21T11:09:48.702Z,5.87
2023-04-21T11:12:19.836Z,5.73
2023-04-21T11:14:49.654Z,5.67
2023-04-21T11:17:20.278Z,6.60
2023-04-21T11:19:54.229Z,6.23
2023-04-21T11:22:25.153Z,6.20
2023-04-21T11:24:57.097Z,5.83
2023-04-21T11:27:30.878Z,7.30
2023-04-21T11:29:59.440Z,6.17
2023-04-21T11:32:29.286Z,6.10
2023-04-21T11:35:00.977Z,6.33
2023-04-21T11:37:30.069Z,6.07
2023-04-21T11:39:59.877Z,5.93
2023-04-21T11:42:31.970Z,6.27
2023-04-21T11:45:00.672Z,6.23
2023-04-21T11:47:30.202Z,5.63
2023-04-21T11:50:01.946Z,6.03
2023-04-21T11:52:33.286Z,5.60
2023-04-21T11:55:03.472Z,5.53
2023-04-21T11:57:34.256Z,6.80
2023-04-21T12:00:06.540Z,6.47
2023-04-21T12:02:35.751Z,6.47
2023-04-21T12:05:06.234Z,6.07
2023-04-21T12:07:37.586Z,5.67
2023-04-21T12:10:11.778Z,6.70
2023-04-21T12:12:43.064Z,6.63
2023-04-21T12:15:20.383Z,6.57
2023-04-21T12:17:51.722Z,6.93
2023-04-21T12:20:22.058Z,7.67
2023-04-21T12:22:52.507Z,7.17
2023-04-21T12:25:21.379Z,8.60
2023-04-21T12:27:52.100Z,8.50
2023-04-21T12:30:21.600Z,8.07
2023-04-21T12:32:52.095Z,9.07
2023-04-21T12:35:20.924Z,8.43
2023-04-21T12:37:50.567Z,8.60
2023-04-21T12:40:20.200Z,8.70
2023-04-21T12:42:49.096Z,8.60
2023-04-21T12:45:22.248Z,9.30
2023-04-21T12:47:50.956Z,8.93
2023-04-21T12:50:19.837Z,8.50
2023-04-21T12:52:48.923Z,9.13
2023-04-21T12:55:24.194Z,9.67
2023-04-21T12:57:54.422Z,9.03
2023-04-21T13:00:37.373Z,9.10
2023-04-21T13:03:16.319Z,9.93
2023-04-21T13:05:46.027Z,10.20
2023-04-21T13:08:15.771Z,9.93
2023-04-21T13:10:46.032Z,9.13
2023-04-21T13:13:14.950Z,8.87
2023-04-21T13:15:46.503Z,7.73
2023-04-21T13:18:15.722Z,8.73
2023-04-21T13:21:02.993Z,8.00
2023-04-21T13:23:37.519Z,8.03
2023-04-21T13:26:07.030Z,9.57
2023-04-21T13:28:40.002Z,8.50
2023-04-21T13:31:10.133Z,9.57
2023-04-21T13:33:39.908Z,8.53
2023-04-21T13:36:11.866Z,7.90
2023-04-21T13:38:41.455Z,8.10
2023-04-21T13:41:10.082Z,8.70
2023-04-21T13:43:44.746Z,8.93
2023-04-21T13:46:15.275Z,9.23
2023-04-21T13:48:46.464Z,9.47
2023-04-21T13:51:15.036Z,7.57
2023-04-21T13:53:43.537Z,8.50
2023-04-21T13:56:14.058Z,8.17
2023-04-21T13:58:42.748Z,7.93
2023-04-21T14:01:11.343Z,8.10
2023-04-21T14:03:42.108Z,7.60
2023-04-21T14:06:10.679Z,7.27
2023-04-21T14:08:39.364Z,7.60
2023-04-21T14:11:07.703Z,6.63
2023-04-21T14:13:42.516Z,8.33
2023-04-21T14:16:14.008Z,6.90
2023-04-21T14:18:45.298Z,6.50
2023-04-21T14:21:14.688Z,6.30
2023-04-21T14:23:43.144Z,7.13
2023-04-21T14:26:11.914Z,6.40
2023-04-21T14:28:40.648Z,6.33
2023-04-21T14:31:09.857Z,6.20
2023-04-21T14:33:38.442Z,5.03
2023-04-21T14:36:08.529Z,5.17
2023-04-21T14:38:40.061Z,5.53
2023-04-21T14:41:08.382Z,5.63
2023-04-21T14:43:36.786Z,5.27
2023-04-21T14:46:05.827Z,5.00
2023-04-21T14:48:34.444Z,5.10
2023-04-21T14:51:04.254Z,5.53
2023-04-21T14:53:34.036Z,5.60
2023-04-21T14:56:02.413Z,5.00
2023-04-21T14:58:30.765Z,5.50
2023-04-21T15:00:59.350Z,5.50
2023-04-21T15:03:28.055Z,5.50
2023-04-21T15:05:56.539Z,5.00
2023-04-21T15:08:25.016Z,5.63
2023-04-21T15:11:02.828Z,5.07
2023-04-21T15:13:31.393Z,6.03
2023-04-21T15:15:59.808Z,5.20
2023-04-21T15:18:28.112Z,5.80
2023-04-21T15:20:57.408Z,5.33
2023-04-21T15:23:26.350Z,5.13
2023-04-21T15:25:54.706Z,5.03
2023-04-21T15:28:24.620Z,4.37
2023-04-21T15:30:53.803Z,4.10
2023-04-21T15:33:22.680Z,4.30
2023-04-21T15:35:51.513Z,3.93
2023-04-21T15:38:21.297Z,3.80
2023-04-21T15:41:00.654Z,3.20
2023-04-21T15:43:31.739Z,4.23
2023-04-21T15:46:00.215Z,3.53
2023-04-21T15:48:28.706Z,1.67
2023-04-21T15:50:58.027Z,1.30
2023-04-21T15:53:27.612Z,1.50
2023-04-21T15:55:56.102Z,1.20
2023-04-21T15:58:24.367Z,1.13
2023-04-21T16:00:54.174Z,1.10
2023-04-21T16:03:23.249Z,1.20
2023-04-21T16:05:56.128Z,1.17
2023-04-21T16:08:28.121Z,1.10
2023-04-21T16:10:57.342Z,3.37
2023-04-21T16:13:25.678Z,2.07
2023-04-21T16:15:55.432Z,1.60
2023-04-21T16:18:24.859Z,1.40
2023-04-21T16:20:53.777Z,1.40
2023-04-21T16:23:22.331Z,1.20
2023-04-21T16:25:51.440Z,1.20
2023-04-21T16:28:21.902Z,1.20
2023-04-21T16:30:50.540Z,1.17
2023-04-21T16:33:20.817Z,1.27
2023-04-21T16:35:49.293Z,1.30
2023-04-21T16:38:17.721Z,1.20
2023-04-21T16:40:46.333Z,1.10
2023-04-21T16:43:14.690Z,1.20
2023-04-21T16:45:48.398Z,2.40
2023-04-21T16:48:16.901Z,1.30
2023-04-21T16:50:46.827Z,2.30
2023-04-21T16:53:15.335Z,4.27
2023-04-21T16:55:45.724Z,5.10
2023-04-21T16:58:14.123Z,4.33
2023-04-21T17:00:42.496Z,3.30
2023-04-21T17:03:11.395Z,3.60
2023-04-21T17:05:40.115Z,4.20
2023-04-21T17:08:10.431Z,2.00
2023-04-21T17:10:38.844Z,1.90
2023-04-21T17:13:07.887Z,1.53
2023-04-21T17:15:36.266Z,1.90
2023-04-21T17:18:05.107Z,1.53
2023-04-21T17:20:34.986Z,1.83
2023-04-21T17:23:03.505Z,1.60
2023-04-21T17:25:33.855Z,2.00
2023-04-21T17:28:02.256Z,1.77
2023-04-21T17:30:31.005Z,1.40
2023-04-21T17:33:12.644Z,1.60
2023-04-21T17:36:02.132Z,1.50
2023-04-21T17:38:32.183Z,1.47
2023-04-21T17:41:03.065Z,1.40
2023-04-21T17:43:31.467Z,1.57
2023-04-21T17:46:00.158Z,1.40
2023-04-21T17:48:28.692Z,2.10
2023-04-21T17:50:57.065Z,1.60
2023-04-21T17:53:25.578Z,1.60
2023-04-21T17:55:53.953Z,1.17
2023-04-21T17:58:23.760Z,1.50
2023-04-21T18:00:54.728Z,1.70
2023-04-21T18:03:23.667Z,1.93
2023-04-21T18:05:52.557Z,1.83
2023-04-21T18:08:21.782Z,1.90
2023-04-21T18:10:50.243Z,1.80
2023-04-21T18:13:18.751Z,1.90
2023-04-21T18:15:48.633Z,1.73
2023-04-21T18:18:17.170Z,1.80
2023-04-21T18:20:45.838Z,1.80
2023-04-21T18:23:14.957Z,2.00
2023-04-21T18:25:43.458Z,1.53
2023-04-21T18:28:13.016Z,2.10
2023-04-21T18:30:42.875Z,1.87
2023-04-21T18:33:12.922Z,1.90
2023-04-21T18:35:42.668Z,1.93
2023-04-21T18:38:11.955Z,1.90
2023-04-21T18:40:41.174Z,1.70
2023-04-21T18:43:11.112Z,1.77
2023-04-21T18:45:40.115Z,1.90
2023-04-21T18:48:08.929Z,1.63
2023-04-21T18:50:40.385Z,1.93
2023-04-21T18:53:09.698Z,1.70
2023-04-21T18:55:38.532Z,1.37
2023-04-21T18:58:07.183Z,1.70
2023-04-21T19:00:39.046Z,1.60
2023-04-21T19:03:08.272Z,1.60
2023-04-21T19:05:40.530Z,1.50
2023-04-21T19:08:10.228Z,1.60
2023-04-21T19:10:39.389Z,1.80
2023-04-21T19:13:08.686Z,1.90
2023-04-21T19:15:37.186Z,1.70
2023-04-21T19:18:06.692Z,1.80
2023-04-21T19:20:37.528Z,2.00
2023-04-21T19:23:07.333Z,1.90
2023-04-21T19:25:36.912Z,1.87
2023-04-21T19:28:06.507Z,1.73
2023-04-21T19:30:34.908Z,1.60
2023-04-21T19:33:05.251Z,1.80
2023-04-21T19:35:33.985Z,1.70
2023-04-21T19:38:02.388Z,1.83
2023-04-21T19:40:32.168Z,1.73
2023-04-21T19:43:04.602Z,1.73
2023-04-21T19:45:34.076Z,1.73
2023-04-21T19:48:02.452Z,1.60
2023-04-21T19:50:31.265Z,1.80
2023-04-21T19:52:59.626Z,1.70
2023-04-21T19:55:28.056Z,1.80
2023-04-21T19:57:58.655Z,1.80
2023-04-21T20:00:27.550Z,1.80
2023-04-21T20:02:56.223Z,2.23
2023-04-21T20:05:24.725Z,2.20
2023-04-21T20:07:53.374Z,2.20
2023-04-21T20:10:22.147Z,1.60
2023-04-21T20:12:50.511Z,1.40
2023-04-21T20:15:21.325Z,1.40
2023-04-21T20:17:50.040Z,1.40
2023-04-21T20:20:18.572Z,1.10
2023-04-21T20:22:56.572Z,1.20
2023-04-21T20:25:24.974Z,1.23
2023-04-21T20:27:53.472Z,1.60
2023-04-21T20:30:23.396Z,1.40
2023-04-21T20:32:51.801Z,1.30
2023-04-21T20:35:20.213Z,1.33
2023-04-21T20:37:48.592Z,1.47
2023-04-21T20:40:18.712Z,1.50
2023-04-21T20:42:47.289Z,1.70
2023-04-21T20:45:18.483Z,1.40
2023-04-21T20:47:48.555Z,1.53
2023-04-21T20:50:16.987Z,1.60
2023-04-21T20:52:46.312Z,1.67
2023-04-21T20:55:14.710Z,1.33
2023-04-21T20:57:43.355Z,1.60
2023-04-21T21:00:12.367Z,1.57
2023-04-21T21:02:41.209Z,1.70
2023-04-21T21:05:11.527Z,1.20
2023-04-21T21:07:39.948Z,1.50
2023-04-21T21:10:11.352Z,1.50
2023-04-21T21:12:39.733Z,1.40
2023-04-21T21:15:09.643Z,1.73
2023-04-21T21:17:38.043Z,1.50
2023-04-21T21:20:08.068Z,1.37
2023-04-21T21:22:37.986Z,1.50
2023-04-21T21:25:07.099Z,1.60
2023-04-21T21:27:35.479Z,1.60
2023-04-21T21:30:04.163Z,1.50
2023-04-21T21:32:32.654Z,1.40
2023-04-21T21:35:03.062Z,1.50
2023-04-21T21:37:31.538Z,1.80
2023-04-21T21:40:01.349Z,1.30
2023-04-21T21:42:31.449Z,1.60
2023-04-21T21:44:59.969Z,1.50
2023-04-21T21:47:28.793Z,1.60
2023-04-21T21:49:58.956Z,1.67
2023-04-21T21:52:28.650Z,1.40
2023-04-21T21:54:58.386Z,1.63
2023-04-21T21:57:28.418Z,1.60
2023-04-21T22:00:00.476Z,2.00
2023-04-21T22:02:30.038Z,1.80
2023-04-21T22:04:59.740Z,1.60
2023-04-21T22:07:29.415Z,1.60
2023-04-21T22:09:59.911Z,1.57
2023-04-21T22:12:33.948Z,1.57
2023-04-21T22:15:02.700Z,1.50
2023-04-21T22:17:34.730Z,1.50
2023-04-21T22:20:08.366Z,1.70
2023-04-21T22:22:37.108Z,2.03
2023-04-21T22:25:06.590Z,2.13
2023-04-21T22:27:38.988Z,1.87
2023-04-21T22:30:09.111Z,1.87
2023-04-21T22:32:37.944Z,1.63
2023-04-21T22:35:07.451Z,2.07
2023-04-21T22:37:35.990Z,1.80
2023-04-21T22:40:05.091Z,1.80
2023-04-21T22:42:33.689Z,2.00
2023-04-21T22:45:05.231Z,1.80
2023-04-21T22:47:34.242Z,1.97
2023-04-21T22:50:04.486Z,2.17
2023-04-21T22:52:33.201Z,1.60
2023-04-21T22:55:01.909Z,2.53
2023-04-21T22:57:30.534Z,2.10
2023-04-21T23:00:08.106Z,2.07
2023-04-21T23:02:37.242Z,2.03
2023-04-21T23:05:06.796Z,2.20
2023-04-21T23:07:36.739Z,2.30
2023-04-21T23:10:05.999Z,2.20
2023-04-21T23:12:34.603Z,2.60
2023-04-21T23:15:03.206Z,2.43
2023-04-21T23:17:33.456Z,2.70
2023-04-21T23:20:02.701Z,2.70
2023-04-21T23:22:31.155Z,2.53
2023-04-21T23:25:00.168Z,2.70
2023-04-21T23:27:28.740Z,2.60
2023-04-21T23:29:57.199Z,2.23
2023-04-21T23:32:25.808Z,2.17
2023-04-21T23:34:55.773Z,2.20
2023-04-21T23:37:24.268Z,2.70
2023-04-21T23:39:52.975Z,2.50
2023-04-21T23:42:21.640Z,2.40
2023-04-21T23:44:50.406Z,2.17
2023-04-21T23:47:19.216Z,2.47
2023-04-21T23:49:47.725Z,2.37
2023-04-21T23:52:17.775Z,2.13
2023-04-21T23:54:47.394Z,2.13
2023-04-21T23:57:16.084Z,2.30
2023-04-21T23:59:44.896Z,2.47
